x

North Channel East (45154) Wave Buoy

3:00am - Fri 28th Aug 2015 All times are CDT. -5 hours from GMT.

  • Sig Wave height 1.3ft
  • Peak Period 3s
  • Wind
    13mph, 18mph gusts
  • Sea Temp 66°f
  • Air Temp 61°f
  • Sea Pressure 1019.2mb
  • North Channel East
  • North Channel East

More Historic Weather Station data

Upgrade to MSW Pro to gain access to the past 30 days of data for over 8000 Wavebouys and Weather Stations around the globe.

Join Pro

Comparision Forecast

View Surf forecast
   
Fri 08/28 3:00am 1.3ft 3s 13 18 mph 1019.2mb 66f 61f
2:00am 1ft 3s 13 18 mph 1019.2mb 66f 61f
1:00am 1ft 3s 13 16 mph 1019.6mb 66f 61f
12:00am 1ft 3s 13 16 mph 1020.3mb 66f 60f
Thu 08/27 9:00pm 0.7ft 2s 11 13 mph 1020.7mb 66f 60f
8:00pm 1ft 2s 9 11 mph 1020.8mb 66f 61f
7:00pm 1ft 2s 11 13 mph 1020.5mb 66f 61f
6:00pm 0.7ft 2s 11 13 mph 1020.1mb 66f 62f
5:00pm 0.3ft 2s 9 11 mph 1020mb 67f 64f
4:00pm 0.7ft 2s 4 7 mph 1020.1mb 66f 63f
3:00pm 1ft 3s 7 11 mph 1020.2mb 67f 62f
1:00pm 0.7ft 2s 11 13 mph 1021.2mb 67f 60f
12:00pm 0.3ft 2s 9 11 mph 1021.5mb 67f 59f
11:00am 0.3ft 3s 7 9 mph 1022mb 67f 58f
9:00am 0.3ft 2s 4 7 mph 1022mb 66f 57f
8:00am 0.7ft 2s 4 7 mph 1021.8mb 66f 56f
6:00am 1ft 2s 9 13 mph 1021.4mb 66f 55f
3:00am 1ft 4s 9 11 mph 1020mb 66f 55f
2:00am 1ft 2s 13 16 mph 1019.8mb 66f 56f
1:00am 1ft 2s 13 16 mph 1019.8mb 66f 57f
12:00am 1ft 3s 11 16 mph 1019.7mb 66f 58f
Wed 08/26 10:00pm 1.3ft 4s 11 13 mph 1019.1mb 66f 58f
9:00pm 1.6ft 4s 13 18 mph 1019mb 66f 59f
8:00pm 1.3ft 3s 13 18 mph 1018.6mb 66f 58f
5:00pm 2.5ft 4s 18 22 mph 1017mb 66f 60f
4:00pm 3ft 4s 20 22 mph 1016.6mb 66f 60f
1:00pm 2ft 3s 16 18 mph 1016.7mb 66f 60f
8:00am 1.3ft 3s 13 18 mph 1015.7mb 66f 56f
2:00am 2.5ft 4s 18 20 mph 1013mb 66f 57f
Tue 08/25 10:00pm 3.5ft 4s 20 25 mph 1012.9mb 66f 57f
9:00pm 3.5ft 4s 22 27 mph 1012.8mb 66f 57f
7:00pm 3.5ft 4s 20 27 mph 1012.2mb 66f 58f
5:00pm 3.5ft 4s 25 29 mph 1011.6mb 67f 58f
4:00pm 3.5ft 4s 22 27 mph 1011mb 67f 59f
1:00pm 3.5ft 4s 20 25 mph 1010.5mb 67f 57f
11:00am 3ft 4s 20 22 mph 1010.1mb 67f 57f
6:00am 3.5ft 5s 20 25 mph 1008mb 67f 58f
Mon 08/24 11:00pm 2.5ft 4s 11 13 mph 1007.3mb 68f 57f
8:00pm 2.5ft 4s 13 18 mph 1007.1mb 68f 59f
7:00pm 3ft 4s 20 22 mph 1006.8mb 68f 60f
6:00pm 2.5ft 4s 20 25 mph 1006.5mb 68f 62f
5:00pm 2.5ft 4s 18 22 mph 1006.4mb 68f 61f
4:00pm 3ft 4s 18 25 mph 1006.5mb 68f 60f